createdAt,value
2017-07-21T00:01:06.111Z,57.70
2017-07-21T00:06:35.096Z,57.00
2017-07-21T00:09:17.708Z,59.10
2017-07-21T00:11:45.241Z,58.00
2017-07-21T00:14:35.520Z,56.50
2017-07-21T00:17:05.876Z,59.30
2017-07-21T00:19:35.703Z,59.20
2017-07-21T00:22:02.390Z,59.40
2017-07-21T00:24:28.675Z,58.70
2017-07-21T00:26:55.218Z,60.40
2017-07-21T00:32:41.800Z,57.10
2017-07-21T00:38:00.879Z,58.10
2017-07-21T00:40:27.220Z,60.50
2017-07-21T00:46:06.984Z,60.10
2017-07-21T00:48:36.846Z,60.10
2017-07-21T00:51:06.138Z,60.10
2017-07-21T00:53:40.073Z,57.90
2017-07-21T00:56:10.181Z,58.20
2017-07-21T00:58:36.673Z,59.50
2017-07-21T01:01:02.931Z,59.20
2017-07-21T01:03:35.701Z,60.20
2017-07-21T01:11:30.850Z,61.50
2017-07-21T01:13:57.228Z,60.30
2017-07-21T01:16:23.727Z,60.20
2017-07-21T01:18:50.230Z,60.10
2017-07-21T01:21:19.285Z,60.10
2017-07-21T01:29:12.101Z,60.00
2017-07-21T01:31:38.397Z,59.70
2017-07-21T01:42:39.791Z,60.20
2017-07-21T01:45:06.749Z,61.40
2017-07-21T01:47:33.757Z,62.40
2017-07-21T01:50:04.259Z,59.50
2017-07-21T01:52:31.922Z,60.60
2017-07-21T01:55:12.718Z,60.30
2017-07-21T01:57:43.340Z,61.30
2017-07-21T02:00:11.866Z,62.30
2017-07-21T02:02:38.828Z,62.60
2017-07-21T02:07:45.764Z,59.60
2017-07-21T02:13:14.000Z,62.40
2017-07-21T02:15:40.611Z,63.10
2017-07-21T02:26:53.573Z,61.30
2017-07-21T02:29:20.089Z,61.40
2017-07-21T02:31:46.465Z,64.10
2017-07-21T02:37:05.844Z,61.70
2017-07-21T02:39:36.117Z,64.10
2017-07-21T02:42:05.695Z,61.40
2017-07-21T02:44:38.223Z,62.30
2017-07-21T02:49:58.915Z,62.50
2017-07-21T02:52:39.168Z,64.10
2017-07-21T02:55:05.677Z,64.10
2017-07-21T03:00:30.303Z,62.70
2017-07-21T03:05:49.169Z,64.00
2017-07-21T03:08:15.435Z,63.10
2017-07-21T03:14:09.746Z,62.90
2017-07-21T03:16:36.843Z,63.80
2017-07-21T03:19:03.224Z,64.70
2017-07-21T03:22:06.493Z,63.80
2017-07-21T03:33:28.889Z,65.30
2017-07-21T03:39:06.965Z,65.20
2017-07-21T03:41:33.317Z,63.50
2017-07-21T03:46:52.033Z,62.50
2017-07-21T03:49:18.414Z,64.00
2017-07-21T03:51:46.980Z,63.70
2017-07-21T03:54:15.133Z,64.70
2017-07-21T03:56:42.051Z,64.40
2017-07-21T03:59:08.987Z,64.30
2017-07-21T04:01:37.044Z,62.80
2017-07-21T04:04:06.763Z,63.70
2017-07-21T04:06:33.202Z,64.10
2017-07-21T04:08:59.596Z,61.30
2017-07-21T04:11:25.884Z,63.90
2017-07-21T04:19:57.690Z,65.80
2017-07-21T04:22:26.153Z,65.40
2017-07-21T04:24:52.972Z,64.20
2017-07-21T04:30:45.155Z,63.70
2017-07-21T04:36:06.066Z,62.60
2017-07-21T04:41:36.135Z,63.30
2017-07-21T04:44:09.376Z,64.00
2017-07-21T04:46:37.404Z,63.70
2017-07-21T04:49:03.811Z,64.50
2017-07-21T04:54:23.825Z,63.50
2017-07-21T04:56:57.355Z,63.00
2017-07-21T04:59:37.084Z,61.00
2017-07-21T05:02:06.868Z,64.00
2017-07-21T05:04:33.585Z,62.20
2017-07-21T05:07:00.005Z,62.20
2017-07-21T05:09:26.501Z,63.20
2017-07-21T05:11:52.872Z,65.10
2017-07-21T05:14:19.267Z,64.90
2017-07-21T05:16:46.974Z,63.30
2017-07-21T05:19:13.187Z,63.30
2017-07-21T05:21:42.341Z,62.00
2017-07-21T05:27:08.472Z,61.50
2017-07-21T05:32:46.916Z,62.00
2017-07-21T05:43:43.056Z,62.00
2017-07-21T05:46:09.350Z,61.30
2017-07-21T05:48:36.160Z,60.00
2017-07-21T05:51:02.619Z,62.60
2017-07-21T05:53:29.183Z,61.40
2017-07-21T05:55:55.553Z,60.20
2017-07-21T05:58:21.755Z,60.30
2017-07-21T06:00:48.028Z,61.30
2017-07-21T06:06:10.878Z,61.00
2017-07-21T06:08:37.451Z,59.80
2017-07-21T06:13:57.352Z,60.60
2017-07-21T06:16:24.733Z,60.60
2017-07-21T06:18:52.698Z,60.80
2017-07-21T06:21:23.070Z,58.60
2017-07-21T06:23:49.393Z,57.20
2017-07-21T06:26:15.985Z,57.20
2017-07-21T06:28:42.862Z,59.00
2017-07-21T06:31:14.348Z,55.80
2017-07-21T06:33:50.921Z,54.50
2017-07-21T06:36:27.584Z,56.60
2017-07-21T06:39:18.187Z,56.40
2017-07-21T06:42:05.622Z,56.30
2017-07-21T06:44:49.643Z,56.00
2017-07-21T06:47:16.507Z,55.80
2017-07-21T06:52:35.906Z,56.90
2017-07-21T06:55:09.464Z,53.50
2017-07-21T06:57:37.523Z,56.60
2017-07-21T07:00:03.863Z,56.40
2017-07-21T07:02:30.411Z,55.50
2017-07-21T07:04:56.767Z,55.80
2017-07-21T07:07:23.032Z,55.50
2017-07-21T07:09:49.483Z,51.80
2017-07-21T07:12:26.767Z,52.40
2017-07-21T07:14:53.232Z,54.20
2017-07-21T07:17:19.640Z,54.80
2017-07-21T07:19:45.992Z,52.10
2017-07-21T07:22:12.269Z,52.10
2017-07-21T07:24:38.549Z,53.50
2017-07-21T07:27:04.816Z,53.60
2017-07-21T07:29:39.029Z,52.20
2017-07-21T07:32:29.253Z,52.20
2017-07-21T07:37:48.286Z,54.10
2017-07-21T07:40:15.678Z,52.40
2017-07-21T07:42:41.937Z,53.60
2017-07-21T07:45:08.205Z,51.40
2017-07-21T07:47:35.304Z,52.60
2017-07-21T07:50:01.684Z,48.20
2017-07-21T08:01:04.009Z,49.00
2017-07-21T08:03:30.702Z,47.00
2017-07-21T08:06:18.835Z,49.50
2017-07-21T08:08:45.191Z,49.20
2017-07-21T08:11:12.958Z,44.60
2017-07-21T08:16:25.212Z,48.10
2017-07-21T08:18:51.526Z,46.20
2017-07-21T08:29:47.899Z,46.70
2017-07-21T08:32:14.330Z,48.10
2017-07-21T08:34:40.563Z,45.30
2017-07-21T08:37:06.993Z,48.10
2017-07-21T08:39:33.196Z,46.00
2017-07-21T08:42:00.459Z,44.80
2017-07-21T08:44:30.241Z,46.30
2017-07-21T08:49:49.704Z,43.40
2017-07-21T08:52:15.923Z,41.70
2017-07-21T08:54:55.888Z,43.60
2017-07-21T08:57:22.084Z,42.30
2017-07-21T08:59:49.601Z,42.30
2017-07-21T09:02:26.332Z,42.90
2017-07-21T09:04:53.313Z,41.90
2017-07-21T09:07:38.619Z,43.70
2017-07-21T09:10:04.930Z,41.70
2017-07-21T09:12:31.195Z,40.60
2017-07-21T09:14:57.496Z,36.20
2017-07-21T09:20:30.894Z,42.20
2017-07-21T09:22:57.134Z,40.10
2017-07-21T09:25:23.460Z,36.80
2017-07-21T09:27:49.790Z,40.20
2017-07-21T09:33:09.991Z,39.00
2017-07-21T09:35:43.722Z,38.90
2017-07-21T09:38:10.055Z,38.50
2017-07-21T09:40:36.357Z,41.50
2017-07-21T09:43:02.702Z,33.90
2017-07-21T09:45:29.030Z,37.80
2017-07-21T09:47:55.444Z,38.10
2017-07-21T09:50:21.711Z,37.10
2017-07-21T09:56:06.185Z,37.60
2017-07-21T10:09:53.320Z,37.70
2017-07-21T10:15:25.793Z,34.30
2017-07-21T10:17:52.250Z,37.90
2017-07-21T10:25:58.369Z,37.10
2017-07-21T10:28:26.979Z,36.70
2017-07-21T10:30:53.686Z,33.00
2017-07-21T10:33:20.051Z,37.10
2017-07-21T10:36:06.758Z,36.40
2017-07-21T10:38:33.035Z,34.90
2017-07-21T10:41:03.156Z,35.00
2017-07-21T10:43:29.651Z,32.50
2017-07-21T10:45:55.923Z,35.20
2017-07-21T10:48:22.167Z,32.30
2017-07-21T10:53:27.918Z,33.50
2017-07-21T10:55:54.156Z,34.10
2017-07-21T10:58:20.989Z,30.30
2017-07-21T11:03:40.397Z,31.30
2017-07-21T11:08:57.631Z,31.40
2017-07-21T11:11:24.658Z,30.70
2017-07-21T11:13:50.953Z,31.60
2017-07-21T11:16:32.061Z,30.70
2017-07-21T11:18:58.352Z,31.40
2017-07-21T11:27:07.115Z,31.50
2017-07-21T11:32:25.721Z,32.60
2017-07-21T11:34:52.089Z,32.00
2017-07-21T11:37:19.151Z,30.00
2017-07-21T11:45:46.217Z,29.90
2017-07-21T11:48:12.769Z,28.80
2017-07-21T11:50:41.583Z,30.70
2017-07-21T11:56:00.752Z,28.20
2017-07-21T12:01:26.850Z,31.80
2017-07-21T12:03:53.468Z,30.80
2017-07-21T12:06:22.128Z,27.30
2017-07-21T12:08:52.394Z,28.70
2017-07-21T12:17:17.501Z,29.60
2017-07-21T12:19:44.301Z,30.80
2017-07-21T12:22:37.204Z,30.50
2017-07-21T12:25:03.656Z,32.10
2017-07-21T12:30:28.868Z,30.90
2017-07-21T12:32:55.429Z,30.50
2017-07-21T12:35:21.773Z,32.00
2017-07-21T12:37:52.192Z,28.40
2017-07-21T12:49:06.111Z,23.40
2017-07-21T12:51:32.480Z,24.30
2017-07-21T12:53:59.859Z,28.20
2017-07-21T12:56:26.630Z,28.50
2017-07-21T12:59:06.227Z,28.90
2017-07-21T13:01:56.935Z,27.50
2017-07-21T13:10:10.901Z,28.00
2017-07-21T13:15:24.606Z,26.30
2017-07-21T13:21:04.705Z,29.10
2017-07-21T13:32:08.303Z,27.60
2017-07-21T13:34:34.628Z,28.20
2017-07-21T13:57:07.395Z,31.00
2017-07-21T13:59:33.652Z,27.80
2017-07-21T14:08:04.096Z,33.70
2017-07-21T14:16:13.851Z,27.10
2017-07-21T14:18:40.435Z,28.50
2017-07-21T14:21:12.538Z,33.50
2017-07-21T14:23:38.936Z,31.10
2017-07-21T14:26:05.544Z,30.60
2017-07-21T14:43:11.228Z,29.80
2017-07-21T14:51:23.961Z,29.80
2017-07-21T14:56:43.521Z,33.60
2017-07-21T15:01:55.491Z,31.30
2017-07-21T15:04:27.573Z,33.20
2017-07-21T15:09:46.724Z,32.10
2017-07-21T15:18:05.688Z,28.90
2017-07-21T15:20:41.080Z,29.40
2017-07-21T15:26:04.460Z,28.80
2017-07-21T15:28:31.202Z,30.10
2017-07-21T15:36:24.718Z,31.50
2017-07-21T15:38:57.767Z,32.50
2017-07-21T15:41:27.386Z,29.90
2017-07-21T15:43:53.835Z,33.40
2017-07-21T15:46:28.379Z,31.20
2017-07-21T15:48:55.251Z,33.00
2017-07-21T15:51:26.146Z,30.80
2017-07-21T15:54:08.077Z,33.30
2017-07-21T15:56:34.400Z,29.40
2017-07-21T15:59:00.597Z,31.50
2017-07-21T16:01:33.620Z,31.80
2017-07-21T16:09:40.767Z,28.80
2017-07-21T16:15:00.193Z,32.50
2017-07-21T16:20:08.919Z,32.70
2017-07-21T16:22:51.527Z,32.20
2017-07-21T16:37:04.459Z,32.00
2017-07-21T16:39:30.732Z,31.70
2017-07-21T16:41:57.194Z,31.70
2017-07-21T16:44:23.476Z,30.40
2017-07-21T16:46:49.734Z,32.80
2017-07-21T16:52:02.668Z,32.20
2017-07-21T16:57:21.942Z,32.40
2017-07-21T16:59:48.238Z,31.00
2017-07-21T17:02:17.209Z,30.00
2017-07-21T17:07:37.191Z,32.20
2017-07-21T17:10:03.570Z,33.30
2017-07-21T17:21:16.281Z,31.80
2017-07-21T17:23:42.557Z,30.80
2017-07-21T17:26:08.875Z,31.00
2017-07-21T17:28:36.281Z,33.20
2017-07-21T17:31:02.640Z,33.10
2017-07-21T17:33:29.174Z,34.70
2017-07-21T17:35:55.861Z,34.10
2017-07-21T17:44:22.088Z,34.60
2017-07-21T17:46:48.325Z,36.30
2017-07-21T17:54:59.492Z,34.10
2017-07-21T17:57:26.030Z,32.60
2017-07-21T18:05:59.057Z,33.70
2017-07-21T18:17:21.796Z,35.30
2017-07-21T18:19:50.256Z,35.60
2017-07-21T18:22:18.876Z,35.80
2017-07-21T18:24:45.155Z,37.10
2017-07-21T18:27:11.450Z,36.70
2017-07-21T18:29:37.735Z,36.30
2017-07-21T18:32:04.273Z,36.30
2017-07-21T18:34:44.563Z,38.90
2017-07-21T18:37:12.315Z,38.60
2017-07-21T18:39:38.633Z,38.60
2017-07-21T18:44:58.310Z,37.80
2017-07-21T18:47:24.450Z,41.80
2017-07-21T18:49:50.672Z,41.50
2017-07-21T18:52:16.852Z,40.90
2017-07-21T18:54:43.046Z,41.50
2017-07-21T18:57:10.292Z,41.00
2017-07-21T18:59:57.045Z,43.30
2017-07-21T19:02:23.261Z,43.50
2017-07-21T19:04:49.758Z,44.00
2017-07-21T19:07:16.063Z,42.60
2017-07-21T19:09:42.356Z,43.10
2017-07-21T19:12:08.507Z,42.70
2017-07-21T19:14:34.714Z,44.50
2017-07-21T19:17:01.065Z,43.10
2017-07-21T19:19:27.305Z,45.20
2017-07-21T19:21:54.482Z,44.20
2017-07-21T19:24:20.737Z,44.30
2017-07-21T19:26:47.330Z,45.80
2017-07-21T19:29:13.624Z,45.80
2017-07-21T19:31:40.165Z,45.70
2017-07-21T19:34:06.521Z,45.60
2017-07-21T19:36:33.210Z,46.70
2017-07-21T19:38:59.557Z,46.30
2017-07-21T19:41:25.759Z,46.10
2017-07-21T19:43:52.019Z,46.40
2017-07-21T19:46:18.623Z,45.80
2017-07-21T19:48:45.216Z,45.30
2017-07-21T19:51:11.730Z,45.20
2017-07-21T19:56:18.310Z,47.90
2017-07-21T19:58:44.585Z,45.60
2017-07-21T20:01:10.910Z,45.20
2017-07-21T20:03:37.178Z,45.60
2017-07-21T20:06:03.363Z,45.90
2017-07-21T20:08:29.567Z,46.60
2017-07-21T20:10:55.775Z,46.70
2017-07-21T20:13:22.086Z,46.10
2017-07-21T20:15:48.327Z,47.70
2017-07-21T20:18:14.523Z,47.40
2017-07-21T20:20:40.715Z,47.10
2017-07-21T20:23:07.015Z,46.90
2017-07-21T20:25:33.284Z,47.70
2017-07-21T20:27:59.623Z,47.00
2017-07-21T20:30:25.783Z,46.20
2017-07-21T20:32:51.948Z,45.90
2017-07-21T20:35:18.109Z,46.50
2017-07-21T20:37:44.280Z,47.00
2017-07-21T20:40:10.452Z,46.40
2017-07-21T20:42:36.675Z,48.20
2017-07-21T20:45:02.884Z,48.40
2017-07-21T20:47:29.035Z,48.20
2017-07-21T20:49:55.211Z,48.50
2017-07-21T20:52:21.473Z,48.40
2017-07-21T20:54:47.727Z,48.10
2017-07-21T20:57:14.028Z,49.40
2017-07-21T20:59:40.283Z,47.10
2017-07-21T21:02:16.151Z,46.80
2017-07-21T21:04:42.522Z,49.10
2017-07-21T21:07:12.351Z,47.00
2017-07-21T21:09:38.740Z,47.40
2017-07-21T21:12:04.908Z,47.40
2017-07-21T21:14:31.216Z,49.00
2017-07-21T21:16:57.381Z,46.70
2017-07-21T21:19:23.552Z,47.10
2017-07-21T21:21:49.693Z,47.40
2017-07-21T21:24:15.863Z,47.00
2017-07-21T21:26:42.028Z,49.00
2017-07-21T21:29:08.192Z,48.10
2017-07-21T21:31:34.364Z,46.90
2017-07-21T21:34:00.594Z,45.80
2017-07-21T21:36:26.794Z,46.10
2017-07-21T21:38:52.946Z,47.20
2017-07-21T21:41:19.091Z,46.70
2017-07-21T21:43:45.251Z,46.30
2017-07-21T21:46:11.436Z,49.10
2017-07-21T21:48:37.594Z,49.20
2017-07-21T21:51:03.787Z,48.20
2017-07-21T21:53:29.919Z,49.50
2017-07-21T21:55:56.133Z,48.40
2017-07-21T21:58:22.281Z,47.30
2017-07-21T22:00:48.455Z,47.70
2017-07-21T22:03:14.647Z,49.30
2017-07-21T22:05:40.984Z,48.30
2017-07-21T22:08:07.293Z,49.00
2017-07-21T22:10:33.648Z,47.50
2017-07-21T22:12:59.811Z,48.60
2017-07-21T22:15:46.927Z,48.30
2017-07-21T22:18:13.105Z,47.80
2017-07-21T22:20:39.297Z,45.70
2017-07-21T22:23:05.491Z,45.50
2017-07-21T22:25:32.271Z,47.60
2017-07-21T22:27:58.463Z,48.70
2017-07-21T22:30:24.631Z,54.40
2017-07-21T22:32:50.835Z,57.30
2017-07-21T22:35:16.981Z,58.40
2017-07-21T22:37:43.150Z,59.60
2017-07-21T22:42:41.253Z,60.90
2017-07-21T22:45:07.411Z,61.30
2017-07-21T22:47:33.646Z,63.00
2017-07-21T22:49:59.878Z,63.10
2017-07-21T22:52:29.089Z,63.80
2017-07-21T22:54:55.279Z,63.20
2017-07-21T22:57:24.242Z,63.10
2017-07-21T22:59:50.448Z,63.00
2017-07-21T23:02:24.157Z,63.00
2017-07-21T23:05:14.204Z,63.10
2017-07-21T23:07:40.547Z,63.00
2017-07-21T23:10:08.006Z,63.90
2017-07-21T23:12:34.270Z,64.80
2017-07-21T23:15:04.541Z,65.60
2017-07-21T23:17:30.942Z,65.50
2017-07-21T23:19:57.285Z,66.20
2017-07-21T23:22:24.033Z,66.20
2017-07-21T23:24:53.832Z,67.00
2017-07-21T23:27:21.263Z,67.00
2017-07-21T23:29:48.996Z,67.00
2017-07-21T23:32:19.402Z,67.20
2017-07-21T23:34:46.531Z,67.30
2017-07-21T23:37:31.817Z,67.70
2017-07-21T23:40:05.349Z,67.50
2017-07-21T23:48:11.798Z,68.60
2017-07-21T23:50:38.730Z,67.80
2017-07-21T23:53:08.051Z,67.90
2017-07-21T23:55:34.299Z,68.80
2017-07-21T23:58:03.347Z,68.30
